Aviation Digital Data Service (ADDS)

Output produced by METARs form (1825 UTC 16 August 2018)
found at http://www.aviationweather.gov/adds/metars/
 
TAF TFFR 161600Z 1618/1718 09012KT 9999 SCT025 
     TEMPO 1621/1715 3000 SHRA SCT010CB SCT015TCU 
     PROB30 
     TEMPO 1703/1709 1000 TSRA BKN010CB